sensor_id;sensor_type;location;lat;lon;timestamp;pressure;altitude;pressure_sealevel;temperature;humidity
61039;BME280;46919;45.816;3.104;2023-07-02T00:00:55;97700.53;;;18.54;82.00
61039;BME280;46919;45.816;3.104;2023-07-02T00:03:21;97701.03;;;18.56;82.47
61039;BME280;46919;45.816;3.104;2023-07-02T00:05:47;97693.38;;;18.58;82.74
61039;BME280;46919;45.816;3.104;2023-07-02T00:08:15;97692.84;;;18.56;83.62
61039;BME280;46919;45.816;3.104;2023-07-02T00:10:40;97698.31;;;18.56;84.58
61039;BME280;46919;45.816;3.104;2023-07-02T00:13:06;97701.88;;;18.52;83.92
61039;BME280;46919;45.816;3.104;2023-07-02T00:15:32;97698.94;;;18.43;84.25
61039;BME280;46919;45.816;3.104;2023-07-02T00:17:57;97699.78;;;18.33;84.08
61039;BME280;46919;45.816;3.104;2023-07-02T00:20:22;97695.13;;;18.34;84.28
61039;BME280;46919;45.816;3.104;2023-07-02T00:22:49;97705.03;;;18.19;84.68
61039;BME280;46919;45.816;3.104;2023-07-02T00:25:14;97702.31;;;18.14;85.23
61039;BME280;46919;45.816;3.104;2023-07-02T00:27:40;97700.13;;;18.16;85.98
61039;BME280;46919;45.816;3.104;2023-07-02T00:30:07;97691.91;;;18.11;86.41
61039;BME280;46919;45.816;3.104;2023-07-02T00:32:33;97704.81;;;18.05;86.51
61039;BME280;46919;45.816;3.104;2023-07-02T00:34:58;97702.63;;;18.02;87.26
61039;BME280;46919;45.816;3.104;2023-07-02T00:37:24;97712.22;;;17.95;88.03
61039;BME280;46919;45.816;3.104;2023-07-02T00:39:49;97711.41;;;17.89;89.30
61039;BME280;46919;45.816;3.104;2023-07-02T00:42:15;97711.66;;;17.82;89.27
61039;BME280;46919;45.816;3.104;2023-07-02T00:44:41;97723.16;;;17.74;90.68
61039;BME280;46919;45.816;3.104;2023-07-02T00:47:11;97716.28;;;17.87;90.97
61039;BME280;46919;45.816;3.104;2023-07-02T00:49:37;97714.94;;;17.95;90.89
61039;BME280;46919;45.816;3.104;2023-07-02T00:52:05;97713.28;;;17.93;90.78
61039;BME280;46919;45.816;3.104;2023-07-02T00:54:31;97706.75;;;17.89;91.10
61039;BME280;46919;45.816;3.104;2023-07-02T00:56:56;97711.13;;;17.96;91.19
61039;BME280;46919;45.816;3.104;2023-07-02T00:59:22;97708.66;;;17.99;90.89
61039;BME280;46919;45.816;3.104;2023-07-02T01:01:48;97702.66;;;17.97;91.35
61039;BME280;46919;45.816;3.104;2023-07-02T01:04:18;97699.63;;;17.99;91.32
61039;BME280;46919;45.816;3.104;2023-07-02T01:06:44;97699.63;;;17.83;91.22
61039;BME280;46919;45.816;3.104;2023-07-02T01:09:10;97684.34;;;17.77;92.30
61039;BME280;46919;45.816;3.104;2023-07-02T01:12:06;97686.53;;;17.70;92.44
61039;BME280;46919;45.816;3.104;2023-07-02T01:14:36;97687.09;;;17.67;92.29
61039;BME280;46919;45.816;3.104;2023-07-02T01:17:04;97697.47;;;17.65;91.86
61039;BME280;46919;45.816;3.104;2023-07-02T01:19:39;97684.63;;;17.70;93.46
61039;BME280;46919;45.816;3.104;2023-07-02T01:22:07;97693.63;;;17.71;92.86
61039;BME280;46919;45.816;3.104;2023-07-02T01:24:33;97686.00;;;17.68;92.79
61039;BME280;46919;45.816;3.104;2023-07-02T01:26:59;97687.66;;;17.64;92.70
61039;BME280;46919;45.816;3.104;2023-07-02T01:29:29;97683.81;;;17.65;92.10
61039;BME280;46919;45.816;3.104;2023-07-02T01:31:55;97690.63;;;17.72;91.26
61039;BME280;46919;45.816;3.104;2023-07-02T01:34:20;97685.41;;;17.76;90.64
61039;BME280;46919;45.816;3.104;2023-07-02T01:36:46;97701.28;;;17.74;90.74
61039;BME280;46919;45.816;3.104;2023-07-02T01:39:11;97698.81;;;17.78;90.37
61039;BME280;46919;45.816;3.104;2023-07-02T01:42:23;97706.22;;;17.77;90.20
61039;BME280;46919;45.816;3.104;2023-07-02T01:44:23;97696.34;;;17.76;89.23
61039;BME280;46919;45.816;3.104;2023-07-02T01:46:49;97701.56;;;17.67;89.24
61039;BME280;46919;45.816;3.104;2023-07-02T01:49:18;97704.88;;;17.59;89.83
61039;BME280;46919;45.816;3.104;2023-07-02T01:51:53;97706.22;;;17.62;90.87
61039;BME280;46919;45.816;3.104;2023-07-02T01:54:20;97719.31;;;17.70;89.93
61039;BME280;46919;45.816;3.104;2023-07-02T01:56:45;97716.34;;;17.61;89.69
61039;BME280;46919;45.816;3.104;2023-07-02T01:59:11;97718.53;;;17.64;89.65
61039;BME280;46919;45.816;3.104;2023-07-02T02:01:37;97714.41;;;17.72;89.16
61039;BME280;46919;45.816;3.104;2023-07-02T02:04:08;97718.25;;;17.71;88.83
61039;BME280;46919;45.816;3.104;2023-07-02T02:06:34;97711.69;;;17.72;88.46
61039;BME280;46919;45.816;3.104;2023-07-02T02:09:00;97720.44;;;17.64;89.23
61039;BME280;46919;45.816;3.104;2023-07-02T02:11:25;97714.97;;;17.64;89.85
61039;BME280;46919;45.816;3.104;2023-07-02T02:13:51;97709.78;;;17.67;89.46
61039;BME280;46919;45.816;3.104;2023-07-02T02:16:16;97704.03;;;17.69;89.31
61039;BME280;46919;45.816;3.104;2023-07-02T02:18:42;97708.38;;;17.70;89.47
61039;BME280;46919;45.816;3.104;2023-07-02T02:21:07;97709.22;;;17.70;89.93
61039;BME280;46919;45.816;3.104;2023-07-02T02:23:33;97701.31;;;17.69;89.68
61039;BME280;46919;45.816;3.104;2023-07-02T02:25:58;97701.31;;;17.69;89.57
61039;BME280;46919;45.816;3.104;2023-07-02T02:28:24;97691.44;;;17.73;89.44
61039;BME280;46919;45.816;3.104;2023-07-02T02:30:49;97708.41;;;17.75;89.16
61039;BME280;46919;45.816;3.104;2023-07-02T02:33:15;97701.81;;;17.76;89.50
61039;BME280;46919;45.816;3.104;2023-07-02T02:35:40;97707.28;;;17.76;89.64
61039;BME280;46919;45.816;3.104;2023-07-02T02:38:05;97706.78;;;17.69;90.16
61039;BME280;46919;45.816;3.104;2023-07-02T02:40:31;97714.97;;;17.69;89.99
61039;BME280;46919;45.816;3.104;2023-07-02T02:42:56;97713.59;;;17.66;90.34
61039;BME280;46919;45.816;3.104;2023-07-02T02:45:22;97703.75;;;17.60;90.86
61039;BME280;46919;45.816;3.104;2023-07-02T02:47:47;97711.69;;;17.62;91.02
61039;BME280;46919;45.816;3.104;2023-07-02T02:50:13;97701.31;;;17.59;91.60
61039;BME280;46919;45.816;3.104;2023-07-02T02:52:38;97707.34;;;17.61;91.98
61039;BME280;46919;45.816;3.104;2023-07-02T02:55:05;97705.41;;;17.51;92.60
61039;BME280;46919;45.816;3.104;2023-07-02T02:57:31;97715.00;;;17.48;92.71
61039;BME280;46919;45.816;3.104;2023-07-02T03:00:06;97719.34;;;17.49;93.34
61039;BME280;46919;45.816;3.104;2023-07-02T03:02:32;97715.53;;;17.50;93.25
61039;BME280;46919;45.816;3.104;2023-07-02T03:04:57;97708.41;;;17.49;93.20
61039;BME280;46919;45.816;3.104;2023-07-02T03:07:27;97711.69;;;17.56;94.45
61039;BME280;46919;45.816;3.104;2023-07-02T03:09:53;97708.41;;;17.65;92.98
61039;BME280;46919;45.816;3.104;2023-07-02T03:12:18;97718.25;;;17.66;93.03
61039;BME280;46919;45.816;3.104;2023-07-02T03:14:43;97717.16;;;17.72;92.22
61039;BME280;46919;45.816;3.104;2023-07-02T03:17:09;97723.16;;;17.69;92.16
61039;BME280;46919;45.816;3.104;2023-07-02T03:19:34;97721.25;;;17.64;92.73
61039;BME280;46919;45.816;3.104;2023-07-02T03:21:59;97719.34;;;17.60;93.38
61039;BME280;46919;45.816;3.104;2023-07-02T03:24:25;97718.78;;;17.52;93.96
61039;BME280;46919;45.816;3.104;2023-07-02T03:26:50;97720.44;;;17.53;94.26
61039;BME280;46919;45.816;3.104;2023-07-02T03:29:15;97717.16;;;17.51;94.46
61039;BME280;46919;45.816;3.104;2023-07-02T03:31:41;97716.63;;;17.44;95.58
61039;BME280;46919;45.816;3.104;2023-07-02T03:34:10;97719.91;;;17.36;96.02
61039;BME280;46919;45.816;3.104;2023-07-02T03:36:36;97716.63;;;17.29;97.00
61039;BME280;46919;45.816;3.104;2023-07-02T03:39:02;97716.63;;;17.24;97.92
61039;BME280;46919;45.816;3.104;2023-07-02T03:41:28;97722.34;;;17.17;98.68
61039;BME280;46919;45.816;3.104;2023-07-02T03:43:53;97719.88;;;17.10;99.35
61039;BME280;46919;45.816;3.104;2023-07-02T03:46:19;97717.69;;;17.07;100.00
61039;BME280;46919;45.816;3.104;2023-07-02T03:48:44;97720.44;;;17.02;100.00
61039;BME280;46919;45.816;3.104;2023-07-02T03:51:10;97720.97;;;17.09;100.00
61039;BME280;46919;45.816;3.104;2023-07-02T03:53:37;97726.16;;;17.00;100.00
61039;BME280;46919;45.816;3.104;2023-07-02T03:56:03;97722.84;;;16.93;100.00
61039;BME280;46919;45.816;3.104;2023-07-02T03:58:28;97727.25;;;16.89;100.00
61039;BME280;46919;45.816;3.104;2023-07-02T04:00:54;97733.47;;;16.84;100.00
61039;BME280;46919;45.816;3.104;2023-07-02T04:03:19;97730.72;;;16.79;100.00
61039;BME280;46919;45.816;3.104;2023-07-02T04:05:44;97729.91;;;16.84;100.00
61039;BME280;46919;45.816;3.104;2023-07-02T04:08:10;97729.09;;;16.78;100.00
61039;BME280;46919;45.816;3.104;2023-07-02T04:10:35;97728.25;;;16.78;100.00
61039;BME280;46919;45.816;3.104;2023-07-02T04:13:02;97729.91;;;16.84;100.00
61039;BME280;46919;45.816;3.104;2023-07-02T04:15:28;97735.88;;;16.76;100.00
61039;BME280;46919;45.816;3.104;2023-07-02T04:17:53;97739.97;;;16.68;100.00
61039;BME280;46919;45.816;3.104;2023-07-02T04:20:22;97747.06;;;16.69;100.00
61039;BME280;46919;45.816;3.104;2023-07-02T04:22:47;97742.72;;;16.78;100.00
61039;BME280;46919;45.816;3.104;2023-07-02T04:25:15;97735.34;;;16.74;100.00
61039;BME280;46919;45.816;3.104;2023-07-02T04:27:41;97744.06;;;16.71;100.00
61039;BME280;46919;45.816;3.104;2023-07-02T04:30:08;97736.16;;;16.74;100.00
61039;BME280;46919;45.816;3.104;2023-07-02T04:32:35;97745.19;;;16.80;100.00
61039;BME280;46919;45.816;3.104;2023-07-02T04:35:00;97744.44;;;16.90;100.00
61039;BME280;46919;45.816;3.104;2023-07-02T04:37:26;97741.16;;;16.93;100.00
61039;BME280;46919;45.816;3.104;2023-07-02T04:39:53;97745.25;;;16.95;100.00
61039;BME280;46919;45.816;3.104;2023-07-02T04:42:19;97748.00;;;17.06;100.00
61039;BME280;46919;45.816;3.104;2023-07-02T04:44:44;97741.72;;;17.05;100.00
61039;BME280;46919;45.816;3.104;2023-07-02T04:47:09;97746.13;;;17.11;100.00
61039;BME280;46919;45.816;3.104;2023-07-02T04:49:35;97750.19;;;17.14;100.00
61039;BME280;46919;45.816;3.104;2023-07-02T04:52:00;97745.84;;;17.18;100.00
61039;BME280;46919;45.816;3.104;2023-07-02T04:54:26;97749.38;;;17.24;100.00
61039;BME280;46919;45.816;3.104;2023-07-02T04:56:51;97750.22;;;17.29;100.00
61039;BME280;46919;45.816;3.104;2023-07-02T04:59:17;97749.13;;;17.35;100.00
61039;BME280;46919;45.816;3.104;2023-07-02T05:01:43;97752.13;;;17.39;100.00
61039;BME280;46919;45.816;3.104;2023-07-02T05:04:10;97748.84;;;17.47;100.00
61039;BME280;46919;45.816;3.104;2023-07-02T05:06:39;97751.31;;;17.64;100.00
61039;BME280;46919;45.816;3.104;2023-07-02T05:09:04;97752.13;;;17.80;100.00
61039;BME280;46919;45.816;3.104;2023-07-02T05:11:30;97743.38;;;17.88;100.00
61039;BME280;46919;45.816;3.104;2023-07-02T05:13:55;97753.78;;;17.81;100.00
61039;BME280;46919;45.816;3.104;2023-07-02T05:16:21;97748.03;;;17.72;100.00
61039;BME280;46919;45.816;3.104;2023-07-02T05:18:46;97749.94;;;17.72;100.00
61039;BME280;46919;45.816;3.104;2023-07-02T05:21:11;97737.63;;;17.74;100.00
61039;BME280;46919;45.816;3.104;2023-07-02T05:23:37;97747.22;;;17.77;100.00
61039;BME280;46919;45.816;3.104;2023-07-02T05:26:02;97743.94;;;17.75;100.00
61039;BME280;46919;45.816;3.104;2023-07-02T05:28:28;97755.38;;;17.82;100.00
61039;BME280;46919;45.816;3.104;2023-07-02T05:30:53;97748.31;;;17.91;100.00
61039;BME280;46919;45.816;3.104;2023-07-02T05:33:20;97752.16;;;17.96;100.00
61039;BME280;46919;45.816;3.104;2023-07-02T05:35:47;97747.16;;;18.08;100.00
61039;BME280;46919;45.816;3.104;2023-07-02T05:38:12;97754.00;;;18.16;100.00
61039;BME280;46919;45.816;3.104;2023-07-02T05:40:37;97749.88;;;18.23;100.00
61039;BME280;46919;45.816;3.104;2023-07-02T05:43:03;97747.94;;;18.29;100.00
61039;BME280;46919;45.816;3.104;2023-07-02T05:45:28;97750.44;;;18.20;99.37
61039;BME280;46919;45.816;3.104;2023-07-02T05:47:54;97754.00;;;18.10;99.20
61039;BME280;46919;45.816;3.104;2023-07-02T05:50:19;97751.03;;;18.07;98.10
61039;BME280;46919;45.816;3.104;2023-07-02T05:52:45;97758.41;;;18.01;99.01
61039;BME280;46919;45.816;3.104;2023-07-02T05:55:11;97761.13;;;18.06;98.65
61039;BME280;46919;45.816;3.104;2023-07-02T05:57:37;97770.72;;;18.04;99.06
61039;BME280;46919;45.816;3.104;2023-07-02T06:00:06;97759.50;;;18.05;99.35
61039;BME280;46919;45.816;3.104;2023-07-02T06:02:32;97765.22;;;18.09;100.00
61039;BME280;46919;45.816;3.104;2023-07-02T06:04:58;97761.13;;;18.17;100.00
61039;BME280;46919;45.816;3.104;2023-07-02T06:07:26;97765.50;;;18.18;98.29
61039;BME280;46919;45.816;3.104;2023-07-02T06:09:52;97772.88;;;18.22;98.27
61039;BME280;46919;45.816;3.104;2023-07-02T06:12:17;97763.31;;;18.15;97.68
61039;BME280;46919;45.816;3.104;2023-07-02T06:14:43;97768.50;;;18.21;97.49
61039;BME280;46919;45.816;3.104;2023-07-02T06:17:08;97766.00;;;18.30;97.43
61039;BME280;46919;45.816;3.104;2023-07-02T06:19:35;97770.63;;;18.35;96.67
61039;BME280;46919;45.816;3.104;2023-07-02T06:22:00;97771.16;;;18.42;96.11
61039;BME280;46919;45.816;3.104;2023-07-02T06:24:26;97773.03;;;18.52;94.96
61039;BME280;46919;45.816;3.104;2023-07-02T06:26:51;97765.63;;;18.62;95.56
61039;BME280;46919;45.816;3.104;2023-07-02T06:29:16;97759.00;;;18.74;94.77
61039;BME280;46919;45.816;3.104;2023-07-02T06:31:42;97768.28;;;18.78;93.83
61039;BME280;46919;45.816;3.104;2023-07-02T06:34:07;97772.38;;;18.91;93.68
61039;BME280;46919;45.816;3.104;2023-07-02T06:36:34;97774.25;;;18.90;93.51
61039;BME280;46919;45.816;3.104;2023-07-02T06:39:00;97771.56;;;18.85;93.23
61039;BME280;46919;45.816;3.104;2023-07-02T06:41:25;97775.09;;;18.86;93.72
61039;BME280;46919;45.816;3.104;2023-07-02T06:43:50;97774.78;;;18.97;93.38
61039;BME280;46919;45.816;3.104;2023-07-02T06:46:16;97782.44;;;19.00;93.51
61039;BME280;46919;45.816;3.104;2023-07-02T06:48:41;97787.56;;;19.12;93.52
61039;BME280;46919;45.816;3.104;2023-07-02T06:51:07;97787.22;;;19.24;93.44
61039;BME280;46919;45.816;3.104;2023-07-02T06:53:33;97785.81;;;19.32;93.66
61039;BME280;46919;45.816;3.104;2023-07-02T06:55:59;97794.81;;;19.37;92.53
61039;BME280;46919;45.816;3.104;2023-07-02T06:58:24;97785.00;;;19.26;91.32
61039;BME280;46919;45.816;3.104;2023-07-02T07:00:50;97792.72;;;19.19;91.16
61039;BME280;46919;45.816;3.104;2023-07-02T07:03:16;97790.00;;;19.14;91.26
61039;BME280;46919;45.816;3.104;2023-07-02T07:05:42;97786.09;;;19.25;90.70
61039;BME280;46919;45.816;3.104;2023-07-02T07:08:07;97788.84;;;19.30;88.64
61039;BME280;46919;45.816;3.104;2023-07-02T07:10:33;97791.53;;;19.35;86.77
61039;BME280;46919;45.816;3.104;2023-07-02T07:13:03;97793.44;;;19.40;87.20
61039;BME280;46919;45.816;3.104;2023-07-02T07:15:33;97797.50;;;19.43;85.92
61039;BME280;46919;45.816;3.104;2023-07-02T07:18:02;97797.03;;;19.35;87.17
61039;BME280;46919;45.816;3.104;2023-07-02T07:20:28;97800.31;;;19.32;86.11
61039;BME280;46919;45.816;3.104;2023-07-02T07:22:53;97806.41;;;19.24;85.71
61039;BME280;46919;45.816;3.104;2023-07-02T07:25:19;97800.53;;;18.96;85.56
61039;BME280;46919;45.816;3.104;2023-07-02T07:27:44;97801.13;;;18.88;86.39
61039;BME280;46919;45.816;3.104;2023-07-02T07:30:10;97795.00;;;19.01;86.39
61039;BME280;46919;45.816;3.104;2023-07-02T07:32:35;97800.94;;;19.19;85.57
61039;BME280;46919;45.816;3.104;2023-07-02T07:35:01;97807.75;;;19.27;84.65
61039;BME280;46919;45.816;3.104;2023-07-02T07:37:26;97795.38;;;19.34;83.88
61039;BME280;46919;45.816;3.104;2023-07-02T07:39:52;97794.81;;;19.37;83.57
61039;BME280;46919;45.816;3.104;2023-07-02T07:42:17;97796.91;;;19.51;83.29
61039;BME280;46919;45.816;3.104;2023-07-02T07:44:44;97797.41;;;19.58;82.19
61039;BME280;46919;45.816;3.104;2023-07-02T07:47:10;97798.19;;;19.59;82.47
61039;BME280;46919;45.816;3.104;2023-07-02T07:49:35;97798.53;;;19.52;81.87
61039;BME280;46919;45.816;3.104;2023-07-02T07:52:01;97796.94;;;19.46;81.18
61039;BME280;46919;45.816;3.104;2023-07-02T07:54:26;97791.72;;;19.49;80.53
61039;BME280;46919;45.816;3.104;2023-07-02T07:56:51;97796.06;;;19.55;80.35
61039;BME280;46919;45.816;3.104;2023-07-02T07:59:17;97792.94;;;19.67;79.80
61039;BME280;46919;45.816;3.104;2023-07-02T08:01:42;97791.50;;;19.80;79.31
61039;BME280;46919;45.816;3.104;2023-07-02T08:04:08;97791.72;;;19.84;80.01
61039;BME280;46919;45.816;3.104;2023-07-02T08:06:33;97797.50;;;19.82;79.82
61039;BME280;46919;45.816;3.104;2023-07-02T08:08:58;97797.78;;;19.81;80.30
61039;BME280;46919;45.816;3.104;2023-07-02T08:11:24;97804.97;;;19.71;79.90
61039;BME280;46919;45.816;3.104;2023-07-02T08:13:49;97808.31;;;19.63;79.84
61039;BME280;46919;45.816;3.104;2023-07-02T08:16:14;97802.41;;;19.46;78.92
61039;BME280;46919;45.816;3.104;2023-07-02T08:18:40;97804.56;;;19.54;78.32
61039;BME280;46919;45.816;3.104;2023-07-02T08:21:06;97804.19;;;19.66;77.52
61039;BME280;46919;45.816;3.104;2023-07-02T08:23:34;97803.34;;;19.70;77.06
61039;BME280;46919;45.816;3.104;2023-07-02T08:25:59;97806.31;;;19.74;77.36
61039;BME280;46919;45.816;3.104;2023-07-02T08:28:25;97806.59;;;19.72;77.47
61039;BME280;46919;45.816;3.104;2023-07-02T08:30:50;97809.31;;;19.83;77.28
61039;BME280;46919;45.816;3.104;2023-07-02T08:33:15;97822.91;;;19.93;76.69
61039;BME280;46919;45.816;3.104;2023-07-02T08:35:41;97825.59;;;19.98;74.87
61039;BME280;46919;45.816;3.104;2023-07-02T08:38:06;97814.63;;;20.03;74.82
61039;BME280;46919;45.816;3.104;2023-07-02T08:40:33;97809.53;;;20.16;74.45
61039;BME280;46919;45.816;3.104;2023-07-02T08:42:58;97812.47;;;20.24;74.32
61039;BME280;46919;45.816;3.104;2023-07-02T08:45:24;97817.75;;;20.21;74.36
61039;BME280;46919;45.816;3.104;2023-07-02T08:47:50;97818.78;;;20.25;75.39
61039;BME280;46919;45.816;3.104;2023-07-02T08:50:16;97821.50;;;20.30;75.37
61039;BME280;46919;45.816;3.104;2023-07-02T08:52:42;97817.16;;;20.24;74.51
61039;BME280;46919;45.816;3.104;2023-07-02T08:55:10;97820.94;;;20.28;75.44
61039;BME280;46919;45.816;3.104;2023-07-02T08:57:35;97822.53;;;20.34;74.51
61039;BME280;46919;45.816;3.104;2023-07-02T09:00:08;97823.13;;;20.31;74.60
61039;BME280;46919;45.816;3.104;2023-07-02T09:02:34;97822.53;;;20.34;73.90
61039;BME280;46919;45.816;3.104;2023-07-02T09:05:00;97819.72;;;20.39;73.02
61039;BME280;46919;45.816;3.104;2023-07-02T09:07:26;97816.31;;;20.53;72.45
61039;BME280;46919;45.816;3.104;2023-07-02T09:09:51;97815.56;;;20.71;72.61
61039;BME280;46919;45.816;3.104;2023-07-02T09:12:30;97817.03;;;20.88;71.97
61039;BME280;46919;45.816;3.104;2023-07-02T09:14:58;97823.31;;;20.88;72.00
61039;BME280;46919;45.816;3.104;2023-07-02T09:17:32;97826.91;;;20.65;71.88
61039;BME280;46919;45.816;3.104;2023-07-02T09:19:58;97821.50;;;20.54;73.39
61039;BME280;46919;45.816;3.104;2023-07-02T09:22:26;97825.25;;;20.63;72.59
61039;BME280;46919;45.816;3.104;2023-07-02T09:24:58;97820.59;;;20.64;71.45
61039;BME280;46919;45.816;3.104;2023-07-02T09:27:40;97821.41;;;20.65;71.42
61039;BME280;46919;45.816;3.104;2023-07-02T09:30:14;97819.16;;;20.72;71.98
61039;BME280;46919;45.816;3.104;2023-07-02T09:32:42;97823.19;;;20.79;71.75
61039;BME280;46919;45.816;3.104;2023-07-02T09:35:07;97823.22;;;20.74;71.22
61039;BME280;46919;45.816;3.104;2023-07-02T09:37:33;97823.28;;;20.69;71.59
61039;BME280;46919;45.816;3.104;2023-07-02T09:39:59;97822.19;;;20.70;71.95
61039;BME280;46919;45.816;3.104;2023-07-02T09:42:25;97821.31;;;20.75;73.12
61039;BME280;46919;45.816;3.104;2023-07-02T09:44:52;97821.88;;;20.96;72.23
61039;BME280;46919;45.816;3.104;2023-07-02T09:47:19;97821.63;;;20.92;72.04
61039;BME280;46919;45.816;3.104;2023-07-02T09:49:53;97820.69;;;21.02;71.65
61039;BME280;46919;45.816;3.104;2023-07-02T09:52:19;97822.78;;;21.10;72.18
61039;BME280;46919;45.816;3.104;2023-07-02T09:54:45;97820.78;;;21.16;72.81
61039;BME280;46919;45.816;3.104;2023-07-02T09:57:11;97815.03;;;21.12;73.43
61039;BME280;46919;45.816;3.104;2023-07-02T09:59:37;97815.19;;;21.02;73.31
61039;BME280;46919;45.816;3.104;2023-07-02T10:02:03;97819.13;;;20.96;73.71
61039;BME280;46919;45.816;3.104;2023-07-02T10:04:39;97812.03;;;20.90;73.95
61039;BME280;46919;45.816;3.104;2023-07-02T10:07:05;97811.53;;;20.88;74.52
61039;BME280;46919;45.816;3.104;2023-07-02T10:09:42;97814.13;;;20.98;73.26
61039;BME280;46919;45.816;3.104;2023-07-02T10:12:22;97812.25;;;21.17;71.13
61039;BME280;46919;45.816;3.104;2023-07-02T10:14:49;97811.78;;;21.29;71.59
61039;BME280;46919;45.816;3.104;2023-07-02T10:17:32;97806.19;;;21.59;70.14
61039;BME280;46919;45.816;3.104;2023-07-02T10:19:59;97816.94;;;21.55;69.99
61039;BME280;46919;45.816;3.104;2023-07-02T10:22:26;97809.50;;;21.75;68.72
61039;BME280;46919;45.816;3.104;2023-07-02T10:24:58;97799.22;;;22.13;66.40
61039;BME280;46919;45.816;3.104;2023-07-02T10:27:42;97792.16;;;22.40;65.47
61039;BME280;46919;45.816;3.104;2023-07-02T10:30:09;97794.69;;;22.50;66.79
61039;BME280;46919;45.816;3.104;2023-07-02T10:32:36;97787.97;;;22.56;64.09
61039;BME280;46919;45.816;3.104;2023-07-02T10:35:23;97791.06;;;22.22;62.44
61039;BME280;46919;45.816;3.104;2023-07-02T10:37:50;97802.41;;;21.87;64.35
61039;BME280;46919;45.816;3.104;2023-07-02T10:40:16;97795.78;;;21.88;64.17
61039;BME280;46919;45.816;3.104;2023-07-02T10:42:51;97799.91;;;22.05;63.50
61039;BME280;46919;45.816;3.104;2023-07-02T10:45:17;97797.59;;;22.26;63.02
61039;BME280;46919;45.816;3.104;2023-07-02T10:47:43;97792.56;;;22.00;62.75
61039;BME280;46919;45.816;3.104;2023-07-02T10:50:21;97799.22;;;22.13;62.36
61039;BME280;46919;45.816;3.104;2023-07-02T10:52:47;97796.75;;;22.12;61.06
61039;BME280;46919;45.816;3.104;2023-07-02T10:55:22;97795.81;;;22.35;60.34
61039;BME280;46919;45.816;3.104;2023-07-02T10:57:49;97792.03;;;22.31;59.75
61039;BME280;46919;45.816;3.104;2023-07-02T11:00:18;97796.25;;;22.23;60.85
61039;BME280;46919;45.816;3.104;2023-07-02T11:02:44;97794.31;;;22.10;59.66
61039;BME280;46919;45.816;3.104;2023-07-02T11:05:10;97785.19;;;22.29;58.59
61039;BME280;46919;45.816;3.104;2023-07-02T11:07:38;97777.75;;;22.71;57.41
61039;BME280;46919;45.816;3.104;2023-07-02T11:10:05;97777.38;;;23.28;56.73
61039;BME280;46919;45.816;3.104;2023-07-02T11:12:31;97779.97;;;23.47;54.63
61039;BME280;46919;45.816;3.104;2023-07-02T11:15:13;97775.78;;;23.13;55.64
61039;BME280;46919;45.816;3.104;2023-07-02T11:17:39;97771.00;;;22.91;53.38
61039;BME280;46919;45.816;3.104;2023-07-02T11:20:08;97785.22;;;22.84;54.80
61039;BME280;46919;45.816;3.104;2023-07-02T11:22:35;97791.63;;;22.79;54.87
61039;BME280;46919;45.816;3.104;2023-07-02T11:27:36;97797.75;;;22.49;56.83
61039;BME280;46919;45.816;3.104;2023-07-02T11:30:02;97795.63;;;22.59;57.96
61039;BME280;46919;45.816;3.104;2023-07-02T11:32:28;97803.16;;;22.68;57.43
61039;BME280;46919;45.816;3.104;2023-07-02T11:34:54;97795.94;;;22.72;57.42
61039;BME280;46919;45.816;3.104;2023-07-02T11:37:20;97798.56;;;22.77;57.12
61039;BME280;46919;45.816;3.104;2023-07-02T11:39:45;97790.00;;;22.65;56.65
61039;BME280;46919;45.816;3.104;2023-07-02T11:42:10;97793.16;;;22.44;57.09
61039;BME280;46919;45.816;3.104;2023-07-02T11:44:36;97792.13;;;22.68;57.27
61039;BME280;46919;45.816;3.104;2023-07-02T11:47:01;97781.47;;;23.03;55.09
61039;BME280;46919;45.816;3.104;2023-07-02T11:49:27;97785.03;;;23.31;52.12
61039;BME280;46919;45.816;3.104;2023-07-02T11:51:53;97788.13;;;23.52;50.86
61039;BME280;46919;45.816;3.104;2023-07-02T11:54:18;97782.25;;;23.90;51.34
61039;BME280;46919;45.816;3.104;2023-07-02T11:56:44;97776.22;;;23.65;50.40
61039;BME280;46919;45.816;3.104;2023-07-02T11:59:09;97789.88;;;23.48;51.17
61039;BME280;46919;45.816;3.104;2023-07-02T12:01:35;97789.25;;;23.28;52.15
61039;BME280;46919;45.816;3.104;2023-07-02T12:04:01;97788.56;;;23.45;51.43
61039;BME280;46919;45.816;3.104;2023-07-02T12:06:26;97783.25;;;23.72;51.91
61039;BME280;46919;45.816;3.104;2023-07-02T12:08:51;97781.31;;;24.17;51.22
61039;BME280;46919;45.816;3.104;2023-07-02T12:11:17;97776.47;;;24.00;51.30
61039;BME280;46919;45.816;3.104;2023-07-02T12:13:42;97771.72;;;23.69;49.91
61039;BME280;46919;45.816;3.104;2023-07-02T12:16:08;97779.59;;;23.62;49.26
61039;BME280;46919;45.816;3.104;2023-07-02T12:18:34;97770.44;;;23.76;48.04
61039;BME280;46919;45.816;3.104;2023-07-02T12:20:59;97769.19;;;23.59;47.88
61039;BME280;46919;45.816;3.104;2023-07-02T12:23:24;97766.03;;;24.20;46.86
61039;BME280;46919;45.816;3.104;2023-07-02T12:25:50;97771.13;;;24.35;47.52
61039;BME280;46919;45.816;3.104;2023-07-02T12:28:15;97777.13;;;23.97;47.45
61039;BME280;46919;45.816;3.104;2023-07-02T12:30:41;97768.53;;;23.76;48.03
61039;BME280;46919;45.816;3.104;2023-07-02T12:33:06;97773.97;;;23.67;47.96
61039;BME280;46919;45.816;3.104;2023-07-02T12:35:32;97770.72;;;23.65;46.81
61039;BME280;46919;45.816;3.104;2023-07-02T12:37:57;97769.69;;;23.61;47.60
61039;BME280;46919;45.816;3.104;2023-07-02T12:40:22;97770.34;;;23.81;47.47
61039;BME280;46919;45.816;3.104;2023-07-02T12:42:48;97783.38;;;23.66;47.92
61039;BME280;46919;45.816;3.104;2023-07-02T12:45:15;97769.91;;;23.87;48.04
61039;BME280;46919;45.816;3.104;2023-07-02T12:47:41;97774.13;;;24.48;46.52
61039;BME280;46919;45.816;3.104;2023-07-02T12:50:08;97772.78;;;24.85;44.97
61039;BME280;46919;45.816;3.104;2023-07-02T12:52:34;97774.63;;;25.25;45.11
61039;BME280;46919;45.816;3.104;2023-07-02T12:54:59;97770.13;;;25.29;43.87
61039;BME280;46919;45.816;3.104;2023-07-02T12:57:25;97774.66;;;25.16;43.92